createdAt,value
2023-03-16T00:03:29.216Z,24.79
2023-03-16T00:07:28.854Z,24.80
2023-03-16T00:11:28.980Z,24.84
2023-03-16T00:15:29.204Z,24.86
2023-03-16T00:19:29.819Z,24.87
2023-03-16T00:23:29.818Z,24.91
2023-03-16T00:27:29.640Z,24.92
2023-03-16T00:31:30.237Z,24.91
2023-03-16T00:35:30.158Z,24.96
2023-03-16T00:39:30.607Z,24.97
2023-03-16T00:43:30.356Z,24.97
2023-03-16T00:47:30.540Z,24.99
2023-03-16T00:51:30.911Z,25.01
2023-03-16T00:55:31.237Z,25.01
2023-03-16T00:59:31.145Z,25.01
2023-03-16T01:03:31.712Z,25.07
2023-03-16T01:07:31.755Z,25.07
2023-03-16T01:11:32.076Z,25.08
2023-03-16T01:15:31.961Z,25.11
2023-03-16T01:19:32.201Z,25.12
2023-03-16T01:23:32.433Z,25.12
2023-03-16T01:27:32.549Z,25.15
2023-03-16T01:31:32.782Z,25.16
2023-03-16T01:35:32.778Z,25.16
2023-03-16T01:39:32.952Z,25.19
2023-03-16T01:43:33.001Z,25.19
2023-03-16T01:47:32.989Z,25.22
2023-03-16T01:51:32.684Z,25.23
2023-03-16T01:55:32.518Z,25.27
2023-03-16T01:59:32.872Z,25.27
2023-03-16T02:03:32.827Z,25.30
2023-03-16T02:07:32.628Z,25.27
2023-03-16T02:11:32.570Z,25.29
2023-03-16T02:15:32.576Z,25.32
2023-03-16T02:19:33.202Z,25.34
2023-03-16T02:23:33.038Z,25.35
2023-03-16T02:27:32.418Z,25.36
2023-03-16T02:31:32.574Z,25.38
2023-03-16T02:35:32.440Z,25.37
2023-03-16T02:39:32.328Z,25.40
2023-03-16T02:43:32.406Z,25.40
2023-03-16T02:47:32.587Z,25.41
2023-03-16T02:51:32.731Z,25.45
2023-03-16T02:55:32.799Z,25.43
2023-03-16T02:59:32.922Z,25.46
2023-03-16T03:03:34.065Z,25.48
2023-03-16T03:07:33.449Z,25.49
2023-03-16T03:11:33.474Z,25.51
2023-03-16T03:15:33.276Z,25.53
2023-03-16T03:19:33.482Z,25.51
2023-03-16T03:23:33.348Z,25.52
2023-03-16T03:27:33.639Z,25.54
2023-03-16T03:31:33.597Z,25.56
2023-03-16T03:35:33.789Z,25.57
2023-03-16T03:39:33.453Z,25.60
2023-03-16T03:43:33.429Z,25.59
2023-03-16T03:47:33.468Z,25.59
2023-03-16T03:51:34.030Z,25.63
2023-03-16T03:55:33.883Z,25.63
2023-03-16T03:59:33.809Z,25.64
2023-03-16T04:03:33.815Z,25.66
2023-03-16T04:07:33.437Z,25.67
2023-03-16T04:11:33.332Z,25.69
2023-03-16T04:15:33.866Z,25.72
2023-03-16T04:19:33.614Z,25.69
2023-03-16T04:23:33.384Z,25.70
2023-03-16T04:27:33.354Z,25.70
2023-03-16T04:31:33.347Z,25.73
2023-03-16T04:35:33.383Z,25.72
2023-03-16T04:39:33.503Z,25.72
2023-03-16T04:43:33.347Z,25.74
2023-03-16T04:47:33.329Z,25.76
2023-03-16T04:51:33.753Z,25.78
2023-03-16T04:55:33.627Z,25.79
2023-03-16T04:59:34.192Z,25.80
2023-03-16T05:03:33.567Z,25.50
2023-03-16T05:07:34.007Z,25.15
2023-03-16T05:11:34.231Z,24.83
2023-03-16T05:15:34.160Z,24.74
2023-03-16T05:19:34.086Z,24.59
2023-03-16T05:23:33.951Z,24.28
2023-03-16T05:27:33.929Z,24.17
2023-03-16T05:31:33.994Z,24.11
2023-03-16T05:35:33.959Z,24.08
2023-03-16T05:39:33.877Z,24.04
2023-03-16T05:43:34.217Z,24.10
2023-03-16T05:47:33.728Z,24.08
2023-03-16T05:51:33.738Z,24.14
2023-03-16T05:55:33.649Z,24.22
2023-03-16T05:59:33.707Z,24.23
2023-03-16T06:03:35.088Z,24.17
2023-03-16T06:07:33.545Z,24.24
2023-03-16T06:11:33.608Z,24.20
2023-03-16T06:15:33.546Z,24.30
2023-03-16T06:19:33.509Z,24.34
2023-03-16T06:23:33.476Z,24.35
2023-03-16T06:27:34.874Z,24.37
2023-03-16T06:31:33.778Z,24.44
2023-03-16T06:35:34.027Z,25.34
2023-03-16T06:39:33.301Z,25.53
2023-03-16T06:43:34.440Z,25.99
2023-03-16T06:47:34.394Z,26.37
2023-03-16T06:51:33.790Z,26.41
2023-03-16T06:55:33.892Z,26.53
2023-03-16T06:59:34.234Z,26.61
2023-03-16T07:03:34.173Z,26.57
2023-03-16T07:07:37.068Z,26.60
2023-03-16T07:11:34.484Z,26.65
2023-03-16T07:15:33.981Z,26.75
2023-03-16T07:19:34.004Z,27.02
2023-03-16T07:23:33.897Z,27.13
2023-03-16T07:27:34.011Z,27.02
2023-03-16T07:43:24.102Z,22.89
2023-03-16T07:47:26.393Z,23.80
2023-03-16T07:51:23.556Z,25.11
2023-03-16T07:55:24.998Z,25.90
2023-03-16T07:59:23.716Z,26.24
2023-03-16T08:03:23.138Z,26.18
2023-03-16T08:07:23.555Z,25.94
2023-03-16T08:11:23.375Z,26.01
2023-03-16T08:15:23.503Z,26.23
2023-03-16T08:19:23.537Z,26.14
2023-03-16T08:23:24.517Z,26.42
2023-03-16T08:27:24.024Z,26.36
2023-03-16T08:31:24.452Z,26.31
2023-03-16T08:35:24.064Z,24.97
2023-03-16T08:39:23.801Z,25.49
2023-03-16T08:43:26.093Z,25.87
2023-03-16T08:47:24.033Z,26.04
2023-03-16T08:51:24.270Z,25.92
2023-03-16T08:55:24.497Z,25.91
2023-03-16T08:59:30.048Z,25.99
2023-03-16T09:03:27.248Z,26.00
2023-03-16T09:07:24.776Z,25.95
2023-03-16T09:11:24.408Z,26.13
2023-03-16T09:15:24.463Z,26.03
2023-03-16T09:19:24.236Z,25.87
2023-03-16T09:23:24.076Z,25.75
2023-03-16T09:27:24.089Z,22.46
2023-03-16T09:31:24.401Z,19.25
2023-03-16T09:35:24.049Z,20.64
2023-03-16T09:39:24.040Z,21.58
2023-03-16T09:43:24.347Z,21.86
2023-03-16T09:47:25.282Z,22.67
2023-03-16T09:51:24.407Z,23.27
2023-03-16T09:55:24.519Z,23.62
2023-03-16T09:59:24.204Z,24.00
2023-03-16T10:03:24.969Z,24.23
2023-03-16T10:07:25.325Z,24.43
2023-03-16T10:11:24.320Z,24.42
2023-03-16T10:15:25.239Z,24.49
2023-03-16T10:19:24.351Z,24.43
2023-03-16T10:23:24.219Z,24.34
2023-03-16T10:27:25.010Z,24.46
2023-03-16T10:31:25.047Z,24.93
2023-03-16T10:35:24.655Z,24.83
2023-03-16T10:39:25.308Z,23.82
2023-03-16T10:43:24.076Z,23.29
2023-03-16T10:47:24.306Z,22.82
2023-03-16T10:51:24.000Z,22.62
2023-03-16T10:55:24.354Z,22.14
2023-03-16T10:59:24.715Z,21.92
2023-03-16T11:03:24.690Z,21.74
2023-03-16T11:07:24.299Z,21.66
2023-03-16T14:30:00.693Z,21.90
2023-03-16T14:34:00.614Z,21.92
2023-03-16T14:38:00.696Z,21.95
2023-03-16T14:42:00.550Z,21.95
2023-03-16T14:46:00.727Z,21.97
2023-03-16T14:50:00.496Z,22.01
2023-03-16T14:54:00.484Z,22.03
2023-03-16T14:58:00.426Z,22.10
2023-03-16T15:02:00.748Z,22.09
2023-03-16T15:06:00.416Z,22.13
2023-03-16T15:10:00.276Z,22.18
2023-03-16T15:14:00.313Z,22.17
2023-03-16T15:18:00.282Z,22.22
2023-03-16T15:22:00.829Z,22.23
2023-03-16T15:26:00.256Z,22.27
2023-03-16T15:30:00.147Z,22.32
2023-03-16T15:34:00.210Z,22.37
2023-03-16T15:38:00.217Z,22.39
2023-03-16T15:42:00.312Z,22.49
2023-03-16T15:46:00.267Z,22.55
2023-03-16T15:50:00.239Z,22.60
2023-03-16T15:54:00.842Z,22.70
2023-03-16T15:58:00.207Z,22.76
2023-03-16T16:02:00.549Z,22.85
2023-03-16T16:06:00.558Z,22.92
2023-03-16T16:10:00.722Z,23.04
2023-03-16T16:14:00.581Z,23.11
2023-03-16T16:18:20.329Z,23.13
2023-03-16T16:22:01.833Z,23.12
2023-03-16T16:26:00.445Z,23.15
2023-03-16T16:30:00.208Z,23.12
2023-03-16T16:34:00.751Z,23.11
2023-03-16T16:38:00.135Z,23.16
2023-03-16T16:42:00.289Z,23.18
2023-03-16T16:46:00.449Z,23.16
2023-03-16T16:50:00.474Z,23.27
2023-03-16T16:54:00.944Z,23.26
2023-03-16T16:58:00.977Z,23.28
2023-03-16T17:02:01.442Z,23.31
2023-03-16T17:06:01.423Z,23.34
2023-03-16T17:10:01.213Z,23.35
2023-03-16T17:14:01.297Z,23.40
2023-03-16T17:18:01.270Z,23.44
2023-03-16T17:22:01.036Z,23.39
2023-03-16T17:26:01.574Z,23.46
2023-03-16T17:30:01.239Z,23.46
2023-03-16T17:34:00.961Z,23.54
2023-03-16T17:38:00.892Z,23.60
2023-03-16T17:42:00.860Z,23.62
2023-03-16T17:46:00.819Z,23.64
2023-03-16T17:50:01.578Z,23.64
2023-03-16T17:54:00.962Z,23.69
2023-03-16T17:58:00.724Z,23.69
2023-03-16T18:02:00.963Z,23.67
2023-03-16T18:06:00.587Z,23.69
2023-03-16T18:10:00.609Z,23.71
2023-03-16T18:14:00.632Z,23.71
2023-03-16T18:18:01.053Z,23.64
2023-03-16T18:22:01.168Z,23.50
2023-03-16T18:26:01.162Z,23.69
2023-03-16T18:30:01.678Z,23.62
2023-03-16T18:34:01.569Z,24.47
2023-03-16T18:38:01.679Z,23.81
2023-03-16T18:42:01.694Z,23.69
2023-03-16T18:46:02.115Z,23.39
2023-03-16T18:50:02.042Z,23.05
2023-03-16T18:54:02.013Z,22.86
2023-03-16T18:58:02.009Z,22.83
2023-03-16T19:02:02.644Z,22.66
2023-03-16T19:06:02.084Z,22.47
2023-03-16T19:10:02.214Z,22.49
2023-03-16T19:14:02.374Z,22.37
2023-03-16T19:18:02.402Z,22.27
2023-03-16T19:22:02.267Z,22.25
2023-03-16T19:26:02.324Z,22.29
2023-03-16T19:30:02.285Z,22.32
2023-03-16T19:34:02.182Z,22.36
2023-03-16T19:38:02.135Z,22.41
2023-03-16T19:42:02.361Z,22.46
2023-03-16T19:46:02.292Z,22.51
2023-03-16T19:50:02.325Z,22.54
2023-03-16T19:54:02.369Z,22.58
2023-03-16T19:58:02.104Z,22.62
2023-03-16T20:02:02.328Z,22.67
2023-03-16T20:06:02.408Z,22.71
2023-03-16T20:10:02.510Z,22.74
2023-03-16T20:14:02.578Z,22.76
2023-03-16T20:18:02.813Z,22.83
2023-03-16T20:22:02.923Z,22.85
2023-03-16T20:26:03.287Z,22.88
2023-03-16T20:30:02.687Z,22.93
2023-03-16T20:34:02.937Z,22.97
2023-03-16T20:38:03.099Z,22.98
2023-03-16T20:42:02.971Z,23.02
2023-03-16T20:46:02.915Z,23.02
2023-03-16T20:50:02.929Z,23.04
2023-03-16T20:54:03.083Z,23.07
2023-03-16T20:58:03.470Z,23.05
2023-03-16T21:02:03.133Z,23.10
2023-03-16T21:06:02.770Z,23.12
2023-03-16T21:10:02.992Z,23.10
2023-03-16T21:14:02.706Z,23.17
2023-03-16T21:18:02.917Z,23.19
2023-03-16T21:22:03.034Z,23.19
2023-03-16T21:26:02.828Z,23.22
2023-03-16T21:30:02.556Z,23.26
2023-03-16T21:34:02.555Z,23.30
2023-03-16T21:38:02.485Z,23.28
2023-03-16T21:42:02.495Z,23.30
2023-03-16T21:46:02.428Z,23.32
2023-03-16T21:50:02.415Z,23.35
2023-03-16T21:54:02.428Z,23.38
2023-03-16T21:58:02.262Z,23.36
2023-03-16T22:02:02.660Z,23.37
2023-03-16T22:06:02.619Z,23.40
2023-03-16T22:10:02.730Z,23.38
2023-03-16T22:14:02.713Z,23.39
2023-03-16T22:18:02.890Z,23.41
2023-03-16T22:22:02.965Z,23.42
2023-03-16T22:26:03.068Z,23.41
2023-03-16T22:30:03.285Z,23.41
2023-03-16T22:34:03.360Z,23.43
2023-03-16T22:38:03.541Z,23.47
2023-03-16T22:42:03.736Z,23.47
2023-03-16T22:46:04.008Z,23.46
2023-03-16T22:50:04.024Z,23.49
2023-03-16T22:54:04.186Z,23.51
2023-03-16T22:58:04.441Z,23.50
2023-03-16T23:02:04.564Z,23.48
2023-03-16T23:06:06.425Z,23.53
2023-03-16T23:10:04.796Z,23.52
2023-03-16T23:14:04.726Z,23.54
2023-03-16T23:18:04.737Z,23.54
2023-03-16T23:22:04.794Z,23.52
2023-03-16T23:26:04.577Z,23.52
2023-03-16T23:30:04.560Z,23.55
2023-03-16T23:34:04.791Z,23.55
2023-03-16T23:38:04.660Z,23.55
2023-03-16T23:42:04.433Z,23.56
2023-03-16T23:46:04.464Z,23.59
2023-03-16T23:50:04.755Z,23.56
2023-03-16T23:54:04.386Z,23.59
2023-03-16T23:58:04.719Z,23.56
